sensor_id;sensor_type;location;lat;lon;timestamp;P1;durP1;ratioP1;P2;durP2;ratioP2
42912;SDS011;50720;54.324;18.558;2023-06-26T00:00:28;11.48;;;6.97;;
42912;SDS011;50720;54.324;18.558;2023-06-26T00:03:20;11.23;;;7.53;;
42912;SDS011;50720;54.324;18.558;2023-06-26T00:05:50;12.15;;;7.32;;
42912;SDS011;50720;54.324;18.558;2023-06-26T00:08:20;13.30;;;7.10;;
42912;SDS011;50720;54.324;18.558;2023-06-26T00:10:49;11.00;;;6.78;;
42912;SDS011;50720;54.324;18.558;2023-06-26T00:13:19;10.13;;;7.70;;
42912;SDS011;50720;54.324;18.558;2023-06-26T00:15:49;17.02;;;8.32;;
42912;SDS011;50720;54.324;18.558;2023-06-26T00:18:21;17.55;;;7.97;;
42912;SDS011;50720;54.324;18.558;2023-06-26T00:20:51;14.30;;;8.13;;
42912;SDS011;50720;54.324;18.558;2023-06-26T00:23:20;17.75;;;8.27;;
42912;SDS011;50720;54.324;18.558;2023-06-26T00:25:50;16.25;;;7.43;;
42912;SDS011;50720;54.324;18.558;2023-06-26T00:28:19;14.65;;;8.07;;
42912;SDS011;50720;54.324;18.558;2023-06-26T00:30:49;11.85;;;8.40;;
42912;SDS011;50720;54.324;18.558;2023-06-26T00:33:19;15.32;;;7.43;;
42912;SDS011;50720;54.324;18.558;2023-06-26T00:35:50;13.15;;;8.98;;
42912;SDS011;50720;54.324;18.558;2023-06-26T00:38:20;15.05;;;8.55;;
42912;SDS011;50720;54.324;18.558;2023-06-26T00:40:49;10.68;;;7.40;;
42912;SDS011;50720;54.324;18.558;2023-06-26T00:43:22;14.82;;;7.72;;
42912;SDS011;50720;54.324;18.558;2023-06-26T00:45:52;13.55;;;8.05;;
42912;SDS011;50720;54.324;18.558;2023-06-26T00:48:23;11.63;;;8.30;;
42912;SDS011;50720;54.324;18.558;2023-06-26T00:50:52;11.23;;;8.93;;
42912;SDS011;50720;54.324;18.558;2023-06-26T00:53:22;13.23;;;8.13;;
42912;SDS011;50720;54.324;18.558;2023-06-26T00:55:52;14.25;;;8.40;;
42912;SDS011;50720;54.324;18.558;2023-06-26T00:58:22;13.80;;;9.05;;
42912;SDS011;50720;54.324;18.558;2023-06-26T01:00:53;17.67;;;8.95;;
42912;SDS011;50720;54.324;18.558;2023-06-26T01:03:24;16.63;;;9.47;;
42912;SDS011;50720;54.324;18.558;2023-06-26T01:05:54;17.92;;;9.65;;
42912;SDS011;50720;54.324;18.558;2023-06-26T01:08:28;18.70;;;9.88;;
42912;SDS011;50720;54.324;18.558;2023-06-26T01:10:58;14.47;;;8.90;;
42912;SDS011;50720;54.324;18.558;2023-06-26T01:13:29;12.18;;;8.50;;
42912;SDS011;50720;54.324;18.558;2023-06-26T01:15:59;14.65;;;9.35;;
42912;SDS011;50720;54.324;18.558;2023-06-26T01:18:31;15.55;;;9.13;;
42912;SDS011;50720;54.324;18.558;2023-06-26T01:21:01;15.98;;;9.43;;
42912;SDS011;50720;54.324;18.558;2023-06-26T01:23:35;16.33;;;10.05;;
42912;SDS011;50720;54.324;18.558;2023-06-26T01:26:12;18.10;;;9.38;;
42912;SDS011;50720;54.324;18.558;2023-06-26T01:28:45;15.13;;;9.27;;
42912;SDS011;50720;54.324;18.558;2023-06-26T01:31:17;19.70;;;10.90;;
42912;SDS011;50720;54.324;18.558;2023-06-26T01:33:48;17.33;;;9.25;;
42912;SDS011;50720;54.324;18.558;2023-06-26T01:36:18;20.02;;;10.68;;
42912;SDS011;50720;54.324;18.558;2023-06-26T01:38:48;19.03;;;11.10;;
42912;SDS011;50720;54.324;18.558;2023-06-26T01:41:19;14.93;;;9.43;;
42912;SDS011;50720;54.324;18.558;2023-06-26T01:43:57;16.52;;;10.15;;
42912;SDS011;50720;54.324;18.558;2023-06-26T01:46:45;13.50;;;9.27;;
42912;SDS011;50720;54.324;18.558;2023-06-26T01:49:21;22.42;;;11.10;;
42912;SDS011;50720;54.324;18.558;2023-06-26T01:51:58;17.95;;;10.43;;
42912;SDS011;50720;54.324;18.558;2023-06-26T01:54:33;15.50;;;9.95;;
42912;SDS011;50720;54.324;18.558;2023-06-26T01:57:09;19.45;;;11.60;;
42912;SDS011;50720;54.324;18.558;2023-06-26T01:59:40;19.73;;;10.32;;
42912;SDS011;50720;54.324;18.558;2023-06-26T02:02:10;24.27;;;12.15;;
42912;SDS011;50720;54.324;18.558;2023-06-26T02:04:40;18.00;;;10.75;;
42912;SDS011;50720;54.324;18.558;2023-06-26T02:07:10;17.17;;;10.27;;
42912;SDS011;50720;54.324;18.558;2023-06-26T02:09:39;19.77;;;11.63;;
42912;SDS011;50720;54.324;18.558;2023-06-26T02:12:10;21.10;;;12.02;;
42912;SDS011;50720;54.324;18.558;2023-06-26T02:14:40;25.42;;;12.10;;
42912;SDS011;50720;54.324;18.558;2023-06-26T02:17:10;21.23;;;10.70;;
42912;SDS011;50720;54.324;18.558;2023-06-26T02:19:40;17.13;;;10.50;;
42912;SDS011;50720;54.324;18.558;2023-06-26T02:22:15;26.73;;;11.52;;
42912;SDS011;50720;54.324;18.558;2023-06-26T02:24:45;17.65;;;10.13;;
42912;SDS011;50720;54.324;18.558;2023-06-26T02:27:16;16.52;;;11.23;;
42912;SDS011;50720;54.324;18.558;2023-06-26T02:29:45;14.40;;;9.25;;
42912;SDS011;50720;54.324;18.558;2023-06-26T02:32:15;17.95;;;10.05;;
42912;SDS011;50720;54.324;18.558;2023-06-26T02:34:44;19.08;;;9.10;;
42912;SDS011;50720;54.324;18.558;2023-06-26T02:37:14;15.48;;;10.10;;
42912;SDS011;50720;54.324;18.558;2023-06-26T02:39:43;19.77;;;11.07;;
42912;SDS011;50720;54.324;18.558;2023-06-26T02:42:13;16.10;;;10.27;;
42912;SDS011;50720;54.324;18.558;2023-06-26T02:44:44;26.70;;;10.93;;
42912;SDS011;50720;54.324;18.558;2023-06-26T02:47:14;17.13;;;10.63;;
42912;SDS011;50720;54.324;18.558;2023-06-26T02:49:44;15.40;;;10.27;;
42912;SDS011;50720;54.324;18.558;2023-06-26T02:52:13;16.20;;;10.25;;
42912;SDS011;50720;54.324;18.558;2023-06-26T02:54:43;16.13;;;10.05;;
42912;SDS011;50720;54.324;18.558;2023-06-26T02:57:12;18.73;;;11.05;;
42912;SDS011;50720;54.324;18.558;2023-06-26T02:59:44;15.68;;;11.48;;
42912;SDS011;50720;54.324;18.558;2023-06-26T03:02:13;16.35;;;11.25;;
42912;SDS011;50720;54.324;18.558;2023-06-26T03:04:43;16.20;;;9.60;;
42912;SDS011;50720;54.324;18.558;2023-06-26T03:07:13;16.58;;;11.02;;
42912;SDS011;50720;54.324;18.558;2023-06-26T03:09:43;16.00;;;9.43;;
42912;SDS011;50720;54.324;18.558;2023-06-26T03:12:12;15.98;;;9.52;;
42912;SDS011;50720;54.324;18.558;2023-06-26T03:14:43;16.13;;;10.13;;
42912;SDS011;50720;54.324;18.558;2023-06-26T03:17:13;17.98;;;10.38;;
42912;SDS011;50720;54.324;18.558;2023-06-26T03:19:43;20.33;;;10.35;;
42912;SDS011;50720;54.324;18.558;2023-06-26T03:22:12;17.92;;;10.15;;
42912;SDS011;50720;54.324;18.558;2023-06-26T03:24:43;18.50;;;9.60;;
42912;SDS011;50720;54.324;18.558;2023-06-26T03:27:13;16.02;;;9.85;;
42912;SDS011;50720;54.324;18.558;2023-06-26T03:29:47;13.85;;;9.80;;
42912;SDS011;50720;54.324;18.558;2023-06-26T03:32:16;14.65;;;10.40;;
42912;SDS011;50720;54.324;18.558;2023-06-26T03:34:46;15.57;;;9.60;;
42912;SDS011;50720;54.324;18.558;2023-06-26T03:37:15;21.02;;;10.10;;
42912;SDS011;50720;54.324;18.558;2023-06-26T03:39:45;14.55;;;9.48;;
42912;SDS011;50720;54.324;18.558;2023-06-26T03:42:14;13.65;;;9.25;;
42912;SDS011;50720;54.324;18.558;2023-06-26T03:44:44;13.07;;;8.85;;
42912;SDS011;50720;54.324;18.558;2023-06-26T03:49:44;14.60;;;9.23;;
42912;SDS011;50720;54.324;18.558;2023-06-26T03:52:14;14.93;;;8.45;;
42912;SDS011;50720;54.324;18.558;2023-06-26T03:54:43;11.77;;;8.35;;
42912;SDS011;50720;54.324;18.558;2023-06-26T03:57:13;15.70;;;7.47;;
42912;SDS011;50720;54.324;18.558;2023-06-26T03:59:44;20.58;;;9.90;;
42912;SDS011;50720;54.324;18.558;2023-06-26T04:04:45;13.40;;;7.68;;
42912;SDS011;50720;54.324;18.558;2023-06-26T04:07:14;16.77;;;7.70;;
42912;SDS011;50720;54.324;18.558;2023-06-26T04:09:44;10.45;;;7.15;;
42912;SDS011;50720;54.324;18.558;2023-06-26T04:12:13;14.95;;;7.53;;
42912;SDS011;50720;54.324;18.558;2023-06-26T04:14:43;8.48;;;6.88;;
42912;SDS011;50720;54.324;18.558;2023-06-26T04:17:14;10.73;;;6.18;;
42912;SDS011;50720;54.324;18.558;2023-06-26T04:19:44;9.45;;;6.82;;
42912;SDS011;50720;54.324;18.558;2023-06-26T04:22:13;11.57;;;7.18;;
42912;SDS011;50720;54.324;18.558;2023-06-26T04:24:43;9.95;;;6.43;;
42912;SDS011;50720;54.324;18.558;2023-06-26T04:27:13;10.70;;;6.63;;
42912;SDS011;50720;54.324;18.558;2023-06-26T04:29:43;10.38;;;5.75;;
42912;SDS011;50720;54.324;18.558;2023-06-26T04:32:13;6.93;;;5.78;;
42912;SDS011;50720;54.324;18.558;2023-06-26T04:34:43;7.30;;;5.43;;
42912;SDS011;50720;54.324;18.558;2023-06-26T04:37:12;8.40;;;5.85;;
42912;SDS011;50720;54.324;18.558;2023-06-26T04:39:43;7.43;;;5.45;;
42912;SDS011;50720;54.324;18.558;2023-06-26T04:42:13;7.22;;;5.38;;
42912;SDS011;50720;54.324;18.558;2023-06-26T04:44:42;7.70;;;4.90;;
42912;SDS011;50720;54.324;18.558;2023-06-26T04:47:13;9.00;;;5.15;;
42912;SDS011;50720;54.324;18.558;2023-06-26T04:49:44;9.02;;;5.00;;
42912;SDS011;50720;54.324;18.558;2023-06-26T04:52:13;9.05;;;5.70;;
42912;SDS011;50720;54.324;18.558;2023-06-26T04:54:43;8.50;;;4.50;;
42912;SDS011;50720;54.324;18.558;2023-06-26T04:57:12;7.38;;;4.43;;
42912;SDS011;50720;54.324;18.558;2023-06-26T04:59:42;7.22;;;4.75;;
42912;SDS011;50720;54.324;18.558;2023-06-26T05:02:12;5.97;;;3.60;;
42912;SDS011;50720;54.324;18.558;2023-06-26T05:04:43;6.95;;;4.15;;
42912;SDS011;50720;54.324;18.558;2023-06-26T05:07:14;7.13;;;4.22;;
42912;SDS011;50720;54.324;18.558;2023-06-26T05:09:44;7.07;;;4.15;;
42912;SDS011;50720;54.324;18.558;2023-06-26T05:12:13;7.80;;;5.22;;
42912;SDS011;50720;54.324;18.558;2023-06-26T05:14:44;5.63;;;3.70;;
42912;SDS011;50720;54.324;18.558;2023-06-26T05:17:15;3.88;;;3.33;;
42912;SDS011;50720;54.324;18.558;2023-06-26T05:19:45;5.15;;;3.55;;
42912;SDS011;50720;54.324;18.558;2023-06-26T05:22:15;6.97;;;3.65;;
42912;SDS011;50720;54.324;18.558;2023-06-26T05:24:46;3.88;;;2.72;;
42912;SDS011;50720;54.324;18.558;2023-06-26T05:27:18;11.95;;;3.47;;
42912;SDS011;50720;54.324;18.558;2023-06-26T05:29:49;5.22;;;2.97;;
42912;SDS011;50720;54.324;18.558;2023-06-26T05:32:21;6.05;;;3.38;;
42912;SDS011;50720;54.324;18.558;2023-06-26T05:34:51;3.83;;;2.42;;
42912;SDS011;50720;54.324;18.558;2023-06-26T05:37:25;3.22;;;2.40;;
42912;SDS011;50720;54.324;18.558;2023-06-26T05:39:57;5.40;;;2.92;;
42912;SDS011;50720;54.324;18.558;2023-06-26T05:42:27;4.53;;;2.60;;
42912;SDS011;50720;54.324;18.558;2023-06-26T05:47:28;3.55;;;2.78;;
42912;SDS011;50720;54.324;18.558;2023-06-26T05:49:58;3.42;;;2.67;;
42912;SDS011;50720;54.324;18.558;2023-06-26T05:52:27;5.70;;;2.72;;
42912;SDS011;50720;54.324;18.558;2023-06-26T05:54:58;5.22;;;2.50;;
42912;SDS011;50720;54.324;18.558;2023-06-26T05:57:28;8.25;;;2.42;;
42912;SDS011;50720;54.324;18.558;2023-06-26T05:59:59;5.03;;;2.25;;
42912;SDS011;50720;54.324;18.558;2023-06-26T06:02:34;3.17;;;2.10;;
42912;SDS011;50720;54.324;18.558;2023-06-26T06:05:04;3.03;;;1.80;;
42912;SDS011;50720;54.324;18.558;2023-06-26T06:07:34;5.47;;;1.83;;
42912;SDS011;50720;54.324;18.558;2023-06-26T06:12:34;5.60;;;2.05;;
42912;SDS011;50720;54.324;18.558;2023-06-26T06:15:05;16.58;;;3.03;;
42912;SDS011;50720;54.324;18.558;2023-06-26T06:17:36;2.67;;;2.17;;
42912;SDS011;50720;54.324;18.558;2023-06-26T06:20:06;4.85;;;2.30;;
42912;SDS011;50720;54.324;18.558;2023-06-26T06:22:36;5.45;;;2.30;;
42912;SDS011;50720;54.324;18.558;2023-06-26T06:25:06;4.00;;;2.50;;
42912;SDS011;50720;54.324;18.558;2023-06-26T06:27:36;5.32;;;2.47;;
42912;SDS011;50720;54.324;18.558;2023-06-26T06:30:06;4.63;;;2.28;;
42912;SDS011;50720;54.324;18.558;2023-06-26T06:32:37;5.25;;;2.38;;
42912;SDS011;50720;54.324;18.558;2023-06-26T06:35:08;3.30;;;2.17;;
42912;SDS011;50720;54.324;18.558;2023-06-26T06:37:37;3.03;;;2.15;;
42912;SDS011;50720;54.324;18.558;2023-06-26T06:40:09;6.03;;;2.88;;
42912;SDS011;50720;54.324;18.558;2023-06-26T06:42:39;3.53;;;2.13;;
42912;SDS011;50720;54.324;18.558;2023-06-26T06:45:09;7.55;;;2.85;;
42912;SDS011;50720;54.324;18.558;2023-06-26T06:47:40;4.72;;;2.50;;
42912;SDS011;50720;54.324;18.558;2023-06-26T06:50:10;5.65;;;2.67;;
42912;SDS011;50720;54.324;18.558;2023-06-26T06:52:42;6.30;;;3.05;;
42912;SDS011;50720;54.324;18.558;2023-06-26T06:55:12;7.55;;;3.00;;
42912;SDS011;50720;54.324;18.558;2023-06-26T06:57:41;8.38;;;3.47;;
42912;SDS011;50720;54.324;18.558;2023-06-26T07:00:11;3.78;;;3.38;;
42912;SDS011;50720;54.324;18.558;2023-06-26T07:02:44;5.70;;;2.67;;
42912;SDS011;50720;54.324;18.558;2023-06-26T07:05:15;5.25;;;2.95;;
42912;SDS011;50720;54.324;18.558;2023-06-26T07:07:45;8.23;;;2.70;;
42912;SDS011;50720;54.324;18.558;2023-06-26T07:10:15;6.88;;;3.08;;
42912;SDS011;50720;54.324;18.558;2023-06-26T07:12:44;6.00;;;3.03;;
42912;SDS011;50720;54.324;18.558;2023-06-26T07:15:14;7.60;;;3.13;;
42912;SDS011;50720;54.324;18.558;2023-06-26T07:17:45;14.15;;;4.70;;
42912;SDS011;50720;54.324;18.558;2023-06-26T07:20:18;10.68;;;4.63;;
42912;SDS011;50720;54.324;18.558;2023-06-26T07:22:47;12.82;;;3.58;;
42912;SDS011;50720;54.324;18.558;2023-06-26T07:25:17;8.52;;;3.33;;
42912;SDS011;50720;54.324;18.558;2023-06-26T07:27:47;5.90;;;3.10;;
42912;SDS011;50720;54.324;18.558;2023-06-26T07:30:16;3.72;;;2.95;;
42912;SDS011;50720;54.324;18.558;2023-06-26T07:32:47;12.75;;;3.75;;
42912;SDS011;50720;54.324;18.558;2023-06-26T07:35:17;13.02;;;3.45;;
42912;SDS011;50720;54.324;18.558;2023-06-26T07:37:47;7.95;;;5.00;;
42912;SDS011;50720;54.324;18.558;2023-06-26T07:40:17;6.85;;;3.85;;
42912;SDS011;50720;54.324;18.558;2023-06-26T07:42:46;8.60;;;3.30;;
42912;SDS011;50720;54.324;18.558;2023-06-26T07:45:16;8.75;;;3.53;;
42912;SDS011;50720;54.324;18.558;2023-06-26T07:47:47;11.57;;;3.97;;
42912;SDS011;50720;54.324;18.558;2023-06-26T07:50:18;10.80;;;4.07;;
42912;SDS011;50720;54.324;18.558;2023-06-26T07:52:49;4.68;;;3.35;;
42912;SDS011;50720;54.324;18.558;2023-06-26T07:55:21;5.80;;;2.92;;
42912;SDS011;50720;54.324;18.558;2023-06-26T07:57:50;6.03;;;3.47;;
42912;SDS011;50720;54.324;18.558;2023-06-26T08:00:21;6.00;;;3.35;;
42912;SDS011;50720;54.324;18.558;2023-06-26T08:02:51;9.53;;;3.20;;
42912;SDS011;50720;54.324;18.558;2023-06-26T08:05:21;9.02;;;3.20;;
42912;SDS011;50720;54.324;18.558;2023-06-26T08:07:51;9.40;;;3.65;;
42912;SDS011;50720;54.324;18.558;2023-06-26T08:10:21;5.47;;;3.33;;
42912;SDS011;50720;54.324;18.558;2023-06-26T08:12:50;11.02;;;5.30;;
42912;SDS011;50720;54.324;18.558;2023-06-26T08:15:22;8.80;;;3.80;;
42912;SDS011;50720;54.324;18.558;2023-06-26T08:17:52;14.10;;;4.13;;
42912;SDS011;50720;54.324;18.558;2023-06-26T08:20:22;10.38;;;4.70;;
42912;SDS011;50720;54.324;18.558;2023-06-26T08:22:51;10.93;;;4.15;;
42912;SDS011;50720;54.324;18.558;2023-06-26T08:25:21;9.00;;;4.25;;
42912;SDS011;50720;54.324;18.558;2023-06-26T08:27:51;9.57;;;4.18;;
42912;SDS011;50720;54.324;18.558;2023-06-26T08:32:56;8.80;;;3.97;;
42912;SDS011;50720;54.324;18.558;2023-06-26T08:35:26;7.95;;;3.88;;
42912;SDS011;50720;54.324;18.558;2023-06-26T08:37:55;10.83;;;3.70;;
42912;SDS011;50720;54.324;18.558;2023-06-26T08:40:25;7.15;;;3.25;;
42912;SDS011;50720;54.324;18.558;2023-06-26T08:42:55;15.50;;;5.57;;
42912;SDS011;50720;54.324;18.558;2023-06-26T08:45:25;13.15;;;5.13;;
42912;SDS011;50720;54.324;18.558;2023-06-26T08:47:57;10.50;;;3.30;;
42912;SDS011;50720;54.324;18.558;2023-06-26T08:50:31;8.70;;;3.58;;
42912;SDS011;50720;54.324;18.558;2023-06-26T08:53:04;14.05;;;3.78;;
42912;SDS011;50720;54.324;18.558;2023-06-26T08:58:13;7.60;;;3.35;;
42912;SDS011;50720;54.324;18.558;2023-06-26T09:03:14;9.05;;;3.75;;
42912;SDS011;50720;54.324;18.558;2023-06-26T09:05:44;10.15;;;4.03;;
42912;SDS011;50720;54.324;18.558;2023-06-26T09:08:13;6.00;;;3.23;;
42912;SDS011;50720;54.324;18.558;2023-06-26T09:10:43;8.55;;;3.35;;
42912;SDS011;50720;54.324;18.558;2023-06-26T09:13:13;9.07;;;3.30;;
42912;SDS011;50720;54.324;18.558;2023-06-26T09:15:56;10.85;;;3.80;;
42912;SDS011;50720;54.324;18.558;2023-06-26T09:18:27;10.82;;;3.67;;
42912;SDS011;50720;54.324;18.558;2023-06-26T09:20:57;9.80;;;3.67;;
42912;SDS011;50720;54.324;18.558;2023-06-26T09:23:27;6.07;;;3.40;;
42912;SDS011;50720;54.324;18.558;2023-06-26T09:25:56;13.82;;;4.93;;
42912;SDS011;50720;54.324;18.558;2023-06-26T09:28:26;10.30;;;3.90;;
42912;SDS011;50720;54.324;18.558;2023-06-26T09:30:55;10.00;;;3.78;;
42912;SDS011;50720;54.324;18.558;2023-06-26T09:33:36;11.38;;;3.75;;
42912;SDS011;50720;54.324;18.558;2023-06-26T09:36:07;8.07;;;3.17;;
42912;SDS011;50720;54.324;18.558;2023-06-26T09:38:38;8.82;;;3.45;;
42912;SDS011;50720;54.324;18.558;2023-06-26T09:41:07;10.20;;;3.78;;
42912;SDS011;50720;54.324;18.558;2023-06-26T09:43:45;6.05;;;3.22;;
42912;SDS011;50720;54.324;18.558;2023-06-26T09:46:15;9.32;;;3.75;;
42912;SDS011;50720;54.324;18.558;2023-06-26T09:48:47;11.68;;;3.95;;
42912;SDS011;50720;54.324;18.558;2023-06-26T09:51:16;13.93;;;3.60;;
42912;SDS011;50720;54.324;18.558;2023-06-26T09:53:50;7.68;;;3.38;;
42912;SDS011;50720;54.324;18.558;2023-06-26T09:56:20;8.65;;;4.05;;
42912;SDS011;50720;54.324;18.558;2023-06-26T09:58:50;9.70;;;3.20;;
42912;SDS011;50720;54.324;18.558;2023-06-26T10:01:20;8.90;;;3.30;;
42912;SDS011;50720;54.324;18.558;2023-06-26T10:03:51;13.82;;;3.42;;
42912;SDS011;50720;54.324;18.558;2023-06-26T10:06:27;8.25;;;3.08;;
42912;SDS011;50720;54.324;18.558;2023-06-26T10:09:00;11.43;;;3.08;;
42912;SDS011;50720;54.324;18.558;2023-06-26T10:11:32;14.05;;;4.13;;
42912;SDS011;50720;54.324;18.558;2023-06-26T10:14:06;8.55;;;4.18;;
42912;SDS011;50720;54.324;18.558;2023-06-26T10:16:44;7.85;;;4.15;;
42912;SDS011;50720;54.324;18.558;2023-06-26T10:19:16;7.88;;;3.72;;
42912;SDS011;50720;54.324;18.558;2023-06-26T10:21:52;10.20;;;4.03;;
42912;SDS011;50720;54.324;18.558;2023-06-26T10:24:22;5.47;;;3.33;;
42912;SDS011;50720;54.324;18.558;2023-06-26T10:26:55;10.75;;;3.92;;
42912;SDS011;50720;54.324;18.558;2023-06-26T10:29:30;14.57;;;3.75;;
42912;SDS011;50720;54.324;18.558;2023-06-26T10:32:02;8.88;;;4.43;;
42912;SDS011;50720;54.324;18.558;2023-06-26T10:34:34;9.50;;;3.63;;
42912;SDS011;50720;54.324;18.558;2023-06-26T10:37:04;10.00;;;3.50;;
42912;SDS011;50720;54.324;18.558;2023-06-26T10:42:28;9.02;;;3.00;;
42912;SDS011;50720;54.324;18.558;2023-06-26T10:45:10;21.35;;;4.68;;
42912;SDS011;50720;54.324;18.558;2023-06-26T10:47:44;6.10;;;3.42;;
42912;SDS011;50720;54.324;18.558;2023-06-26T10:50:24;14.02;;;3.65;;
42912;SDS011;50720;54.324;18.558;2023-06-26T10:55:41;10.27;;;3.65;;
42912;SDS011;50720;54.324;18.558;2023-06-26T10:58:29;5.00;;;3.13;;
42912;SDS011;50720;54.324;18.558;2023-06-26T11:01:18;7.60;;;3.47;;
42912;SDS011;50720;54.324;18.558;2023-06-26T11:04:03;6.85;;;3.03;;
42912;SDS011;50720;54.324;18.558;2023-06-26T11:06:35;8.50;;;3.10;;
42912;SDS011;50720;54.324;18.558;2023-06-26T11:09:08;4.35;;;2.75;;
42912;SDS011;50720;54.324;18.558;2023-06-26T11:11:55;6.55;;;3.03;;
42912;SDS011;50720;54.324;18.558;2023-06-26T11:14:33;7.75;;;3.30;;
42912;SDS011;50720;54.324;18.558;2023-06-26T11:17:04;6.63;;;3.15;;
42912;SDS011;50720;54.324;18.558;2023-06-26T11:19:34;5.18;;;2.90;;
42912;SDS011;50720;54.324;18.558;2023-06-26T11:22:05;4.90;;;2.60;;
42912;SDS011;50720;54.324;18.558;2023-06-26T11:24:35;6.70;;;3.13;;
42912;SDS011;50720;54.324;18.558;2023-06-26T11:27:05;7.38;;;3.00;;
42912;SDS011;50720;54.324;18.558;2023-06-26T11:29:35;11.00;;;3.95;;
42912;SDS011;50720;54.324;18.558;2023-06-26T11:32:04;12.20;;;3.13;;
42912;SDS011;50720;54.324;18.558;2023-06-26T11:34:35;5.55;;;3.30;;
42912;SDS011;50720;54.324;18.558;2023-06-26T11:37:07;4.00;;;2.53;;
42912;SDS011;50720;54.324;18.558;2023-06-26T11:39:36;5.45;;;3.53;;
42912;SDS011;50720;54.324;18.558;2023-06-26T11:42:05;5.70;;;4.25;;
42912;SDS011;50720;54.324;18.558;2023-06-26T11:47:11;8.57;;;3.08;;
42912;SDS011;50720;54.324;18.558;2023-06-26T11:49:42;3.25;;;2.53;;
42912;SDS011;50720;54.324;18.558;2023-06-26T11:52:13;3.15;;;2.85;;
42912;SDS011;50720;54.324;18.558;2023-06-26T11:54:44;3.42;;;2.67;;
42912;SDS011;50720;54.324;18.558;2023-06-26T11:57:14;4.18;;;2.90;;
42912;SDS011;50720;54.324;18.558;2023-06-26T11:59:45;4.85;;;3.10;;
42912;SDS011;50720;54.324;18.558;2023-06-26T12:02:14;6.85;;;2.78;;
42912;SDS011;50720;54.324;18.558;2023-06-26T12:04:45;3.97;;;2.83;;
42912;SDS011;50720;54.324;18.558;2023-06-26T12:07:16;5.38;;;2.53;;
42912;SDS011;50720;54.324;18.558;2023-06-26T12:09:47;5.00;;;2.70;;
42912;SDS011;50720;54.324;18.558;2023-06-26T12:12:17;3.90;;;2.50;;
42912;SDS011;50720;54.324;18.558;2023-06-26T12:14:47;2.72;;;1.90;;
42912;SDS011;50720;54.324;18.558;2023-06-26T12:17:16;4.00;;;2.65;;
42912;SDS011;50720;54.324;18.558;2023-06-26T12:19:51;6.32;;;2.78;;
42912;SDS011;50720;54.324;18.558;2023-06-26T12:22:22;6.82;;;2.67;;
42912;SDS011;50720;54.324;18.558;2023-06-26T12:24:51;2.97;;;2.40;;
42912;SDS011;50720;54.324;18.558;2023-06-26T12:27:25;4.50;;;2.60;;
42912;SDS011;50720;54.324;18.558;2023-06-26T12:29:55;4.55;;;2.33;;
42912;SDS011;50720;54.324;18.558;2023-06-26T12:32:24;8.15;;;2.72;;
42912;SDS011;50720;54.324;18.558;2023-06-26T12:34:56;5.40;;;2.72;;
42912;SDS011;50720;54.324;18.558;2023-06-26T12:37:27;5.15;;;2.88;;
42912;SDS011;50720;54.324;18.558;2023-06-26T12:39:57;5.55;;;2.60;;
42912;SDS011;50720;54.324;18.558;2023-06-26T12:42:27;4.10;;;2.70;;
42912;SDS011;50720;54.324;18.558;2023-06-26T12:44:57;4.03;;;2.50;;
42912;SDS011;50720;54.324;18.558;2023-06-26T12:47:27;2.80;;;2.25;;
42912;SDS011;50720;54.324;18.558;2023-06-26T12:49:59;2.85;;;2.45;;
42912;SDS011;50720;54.324;18.558;2023-06-26T12:52:35;6.70;;;3.17;;
42912;SDS011;50720;54.324;18.558;2023-06-26T12:55:05;19.55;;;4.75;;
42912;SDS011;50720;54.324;18.558;2023-06-26T12:57:35;6.40;;;2.45;;
42912;SDS011;50720;54.324;18.558;2023-06-26T13:00:05;4.55;;;2.67;;
42912;SDS011;50720;54.324;18.558;2023-06-26T13:02:37;18.67;;;5.32;;
42912;SDS011;50720;54.324;18.558;2023-06-26T13:05:07;7.72;;;2.65;;
42912;SDS011;50720;54.324;18.558;2023-06-26T13:07:38;5.47;;;2.72;;
42912;SDS011;50720;54.324;18.558;2023-06-26T13:10:08;3.10;;;2.53;;
42912;SDS011;50720;54.324;18.558;2023-06-26T13:12:38;5.22;;;2.30;;
42912;SDS011;50720;54.324;18.558;2023-06-26T13:15:08;4.90;;;3.10;;
42912;SDS011;50720;54.324;18.558;2023-06-26T13:17:38;4.15;;;2.50;;
42912;SDS011;50720;54.324;18.558;2023-06-26T13:20:09;3.83;;;2.78;;
42912;SDS011;50720;54.324;18.558;2023-06-26T13:22:40;4.53;;;2.47;;
42912;SDS011;50720;54.324;18.558;2023-06-26T13:25:10;3.55;;;2.45;;
42912;SDS011;50720;54.324;18.558;2023-06-26T13:27:40;4.85;;;2.85;;
42912;SDS011;50720;54.324;18.558;2023-06-26T13:30:12;2.60;;;2.40;;
42912;SDS011;50720;54.324;18.558;2023-06-26T13:32:44;4.30;;;3.40;;
42912;SDS011;50720;54.324;18.558;2023-06-26T13:35:14;3.53;;;2.42;;
42912;SDS011;50720;54.324;18.558;2023-06-26T13:37:45;2.42;;;2.00;;
42912;SDS011;50720;54.324;18.558;2023-06-26T13:40:15;3.97;;;2.40;;
42912;SDS011;50720;54.324;18.558;2023-06-26T13:42:45;6.75;;;2.80;;
42912;SDS011;50720;54.324;18.558;2023-06-26T13:45:15;2.90;;;2.38;;
42912;SDS011;50720;54.324;18.558;2023-06-26T13:47:57;6.22;;;2.58;;
42912;SDS011;50720;54.324;18.558;2023-06-26T13:50:28;5.50;;;2.15;;
42912;SDS011;50720;54.324;18.558;2023-06-26T13:53:19;6.10;;;2.67;;
42912;SDS011;50720;54.324;18.558;2023-06-26T13:55:49;6.47;;;2.63;;
42912;SDS011;50720;54.324;18.558;2023-06-26T13:58:18;6.63;;;3.30;;
42912;SDS011;50720;54.324;18.558;2023-06-26T14:00:54;4.18;;;2.42;;
42912;SDS011;50720;54.324;18.558;2023-06-26T14:03:23;9.35;;;2.97;;
42912;SDS011;50720;54.324;18.558;2023-06-26T14:05:55;7.28;;;2.50;;
42912;SDS011;50720;54.324;18.558;2023-06-26T14:08:26;9.68;;;2.83;;
42912;SDS011;50720;54.324;18.558;2023-06-26T14:10:55;4.18;;;3.28;;
42912;SDS011;50720;54.324;18.558;2023-06-26T14:13:25;5.20;;;3.40;;
42912;SDS011;50720;54.324;18.558;2023-06-26T14:15:54;4.30;;;2.55;;
42912;SDS011;50720;54.324;18.558;2023-06-26T14:18:24;7.43;;;2.92;;
42912;SDS011;50720;54.324;18.558;2023-06-26T14:20:55;4.50;;;3.05;;
42912;SDS011;50720;54.324;18.558;2023-06-26T14:23:26;4.50;;;2.70;;
42912;SDS011;50720;54.324;18.558;2023-06-26T14:25:56;4.35;;;2.80;;
42912;SDS011;50720;54.324;18.558;2023-06-26T14:28:25;4.65;;;2.97;;
42912;SDS011;50720;54.324;18.558;2023-06-26T14:33:24;6.25;;;3.08;;
42912;SDS011;50720;54.324;18.558;2023-06-26T14:35:54;4.72;;;3.00;;
42912;SDS011;50720;54.324;18.558;2023-06-26T14:38:23;3.88;;;2.30;;
42912;SDS011;50720;54.324;18.558;2023-06-26T14:40:54;6.20;;;3.13;;
42912;SDS011;50720;54.324;18.558;2023-06-26T14:43:24;2.80;;;2.47;;
42912;SDS011;50720;54.324;18.558;2023-06-26T14:45:54;3.15;;;2.78;;
42912;SDS011;50720;54.324;18.558;2023-06-26T14:48:24;4.03;;;2.70;;
42912;SDS011;50720;54.324;18.558;2023-06-26T14:50:57;4.15;;;2.80;;
42912;SDS011;50720;54.324;18.558;2023-06-26T14:53:27;4.70;;;2.60;;
42912;SDS011;50720;54.324;18.558;2023-06-26T14:55:58;8.00;;;2.58;;
42912;SDS011;50720;54.324;18.558;2023-06-26T14:58:28;5.00;;;2.72;;
42912;SDS011;50720;54.324;18.558;2023-06-26T15:03:27;3.10;;;2.80;;
42912;SDS011;50720;54.324;18.558;2023-06-26T15:05:57;4.65;;;2.97;;
42912;SDS011;50720;54.324;18.558;2023-06-26T15:08:26;4.43;;;2.60;;
42912;SDS011;50720;54.324;18.558;2023-06-26T15:11:00;3.83;;;2.60;;
42912;SDS011;50720;54.324;18.558;2023-06-26T15:13:31;6.90;;;2.65;;
42912;SDS011;50720;54.324;18.558;2023-06-26T15:16:01;3.70;;;2.42;;
42912;SDS011;50720;54.324;18.558;2023-06-26T15:21:00;6.07;;;2.75;;
42912;SDS011;50720;54.324;18.558;2023-06-26T15:23:29;4.97;;;2.70;;